Terminal Aerodrome Forecast
Issued by NWS

Home | Current Version | Previous Version | Text Only | Print | Product List | Glossary On
Versions: 1 2 3 4 5 6 7 8 9 10 11 12
000
FTUS43 KFGF 252300
TAFBJI
TAF
KBJI 252333Z 2600/2624 VRB06KT P6SM SKC
     FM261600 13008KT P6SM FEW250
     FM261900 13012G18KT P6SM SCT250=

USA.gov is the U.S. government's official web portal to all federal, state and local government web resources and services.